createdAt,value
2019-02-16T00:00:58.741Z,1.20
2019-02-16T00:03:28.047Z,1.20
2019-02-16T00:05:57.384Z,1.10
2019-02-16T00:08:26.690Z,1.00
2019-02-16T00:10:56.059Z,0.90
2019-02-16T00:13:25.469Z,0.70
2019-02-16T00:15:55.120Z,0.70
2019-02-16T00:18:24.431Z,0.60
2019-02-16T00:20:53.765Z,0.40
2019-02-16T00:23:23.093Z,0.20
2019-02-16T00:25:52.434Z,0.00
2019-02-16T00:28:21.864Z,0.10
2019-02-16T00:30:51.353Z,-0.10
2019-02-16T00:33:20.671Z,-0.20
2019-02-16T00:35:50.028Z,-0.10
2019-02-16T00:38:19.356Z,-0.20
2019-02-16T00:40:48.685Z,-0.20
2019-02-16T00:43:18.056Z,-0.30
2019-02-16T00:45:47.614Z,-0.20
2019-02-16T00:48:16.938Z,-0.20
2019-02-16T00:50:46.271Z,-0.20
2019-02-16T00:53:15.632Z,-0.20
2019-02-16T00:55:44.961Z,-0.20
2019-02-16T00:58:14.295Z,-0.30
2019-02-16T01:00:43.854Z,-0.30
2019-02-16T01:03:13.242Z,-0.30
2019-02-16T01:05:42.585Z,-0.30
2019-02-16T01:08:11.919Z,-0.30
2019-02-16T01:10:41.288Z,-0.30
2019-02-16T01:13:10.929Z,-0.40
2019-02-16T01:15:40.353Z,-0.40
2019-02-16T01:18:09.685Z,-0.50
2019-02-16T01:20:38.975Z,-0.50
2019-02-16T01:23:08.284Z,-0.60
2019-02-16T01:25:37.522Z,-0.50
2019-02-16T01:28:06.852Z,-0.50
2019-02-16T01:30:36.195Z,-0.70
2019-02-16T01:33:05.749Z,-0.80
2019-02-16T01:35:35.072Z,-0.90
2019-02-16T01:38:04.427Z,-1.00
2019-02-16T01:40:33.763Z,-1.10
2019-02-16T01:43:03.095Z,-1.20
2019-02-16T01:45:32.435Z,-1.20
2019-02-16T01:48:01.933Z,-1.30
2019-02-16T01:50:31.284Z,-1.20
2019-02-16T01:53:00.643Z,-1.10
2019-02-16T01:55:29.950Z,-0.90
2019-02-16T01:57:59.283Z,-0.80
2019-02-16T02:00:28.608Z,-0.80
2019-02-16T02:02:57.908Z,-0.70
2019-02-16T02:05:27.272Z,-0.60
2019-02-16T02:07:56.807Z,-0.60
2019-02-16T02:10:26.160Z,-0.70
2019-02-16T02:12:55.488Z,-0.80
2019-02-16T02:15:24.850Z,-0.90
2019-02-16T02:17:54.177Z,-1.00
2019-02-16T02:20:24.918Z,-0.80
2019-02-16T02:22:54.220Z,-0.80
2019-02-16T02:25:23.541Z,-0.80
2019-02-16T02:27:52.884Z,-0.90
2019-02-16T02:30:22.218Z,-1.00
2019-02-16T02:32:51.547Z,-1.00
2019-02-16T02:35:21.222Z,-0.90
2019-02-16T02:37:50.574Z,-0.80
2019-02-16T02:40:19.903Z,-0.90
2019-02-16T02:42:49.214Z,-0.90
2019-02-16T02:45:18.559Z,-1.00
2019-02-16T02:47:47.910Z,-1.10
2019-02-16T02:50:17.508Z,-1.20
2019-02-16T02:52:47.080Z,-1.20
2019-02-16T02:55:16.438Z,-1.10
2019-02-16T02:57:45.740Z,-1.10
2019-02-16T03:00:15.023Z,-1.10
2019-02-16T03:02:44.438Z,-1.10
2019-02-16T03:05:13.734Z,-1.10
2019-02-16T03:07:43.048Z,-1.20
2019-02-16T03:10:12.349Z,-1.10
2019-02-16T03:12:41.690Z,-1.10
2019-02-16T03:15:11.028Z,-1.10
2019-02-16T03:17:40.396Z,-1.10
2019-02-16T03:20:09.745Z,-1.00
2019-02-16T03:23:14.737Z,-1.00
2019-02-16T03:25:56.590Z,-1.00
2019-02-16T03:28:37.172Z,-1.00
2019-02-16T03:31:43.362Z,-1.00
2019-02-16T03:34:19.504Z,-1.10
2019-02-16T03:37:28.738Z,-1.10
2019-02-16T03:39:58.060Z,-1.10
2019-02-16T03:42:27.374Z,-1.10
2019-02-16T03:44:56.747Z,-1.20
2019-02-16T03:47:26.065Z,-1.00
2019-02-16T03:49:55.456Z,-0.90
2019-02-16T03:52:24.869Z,-0.90
2019-02-16T03:54:54.263Z,-0.90
2019-02-16T03:57:23.565Z,-1.10
2019-02-16T03:59:52.891Z,-1.30
2019-02-16T04:02:22.190Z,-1.50
2019-02-16T04:04:51.515Z,-1.60
2019-02-16T04:07:39.014Z,-1.90
2019-02-16T04:10:08.285Z,-2.10
2019-02-16T04:12:37.598Z,-2.10
2019-02-16T04:15:06.986Z,-2.30
2019-02-16T04:17:36.323Z,-2.40
2019-02-16T04:20:06.069Z,-2.50
2019-02-16T04:22:35.408Z,-2.60
2019-02-16T04:25:04.758Z,-2.50
2019-02-16T04:27:34.044Z,-2.40
2019-02-16T04:30:03.359Z,-2.30
2019-02-16T04:32:32.655Z,-2.10
2019-02-16T04:35:01.984Z,-2.10
2019-02-16T04:37:31.495Z,-2.00
2019-02-16T04:40:02.084Z,-2.00
2019-02-16T04:42:31.448Z,-1.90
2019-02-16T04:45:00.794Z,-1.90
2019-02-16T04:47:30.178Z,-1.90
2019-02-16T04:50:00.542Z,-1.80
2019-02-16T04:52:34.962Z,-1.80
2019-02-16T04:55:00.922Z,-1.80
2019-02-16T04:57:30.224Z,-1.80
2019-02-16T04:59:59.635Z,-1.80
2019-02-16T05:02:28.959Z,-1.60
2019-02-16T05:04:58.289Z,-1.60
2019-02-16T05:07:27.937Z,-1.80
2019-02-16T05:09:57.278Z,-1.80
2019-02-16T05:12:26.632Z,-1.90
2019-02-16T05:14:55.904Z,-1.90
2019-02-16T05:17:25.232Z,-2.00
2019-02-16T05:19:54.504Z,-2.20
2019-02-16T05:22:23.850Z,-2.40
2019-02-16T05:24:53.154Z,-2.50
2019-02-16T05:27:22.772Z,-2.60
2019-02-16T05:29:52.075Z,-2.70
2019-02-16T05:32:21.398Z,-2.60
2019-02-16T05:34:50.674Z,-2.70
2019-02-16T05:37:20.031Z,-2.70
2019-02-16T05:39:49.372Z,-2.70
2019-02-16T05:46:04.240Z,-2.70
2019-02-16T05:48:33.575Z,-2.70
2019-02-16T05:51:02.924Z,-2.80
2019-02-16T05:53:32.315Z,-2.80
2019-02-16T05:56:01.649Z,-2.90
2019-02-16T05:58:30.961Z,-2.90
2019-02-16T06:01:00.439Z,-2.90
2019-02-16T06:03:29.831Z,-2.90
2019-02-16T06:05:59.154Z,-3.00
2019-02-16T06:08:28.499Z,-3.00
2019-02-16T06:10:57.810Z,-3.00
2019-02-16T06:13:27.181Z,-3.00
2019-02-16T06:15:56.655Z,-3.00
2019-02-16T06:18:26.352Z,-3.00
2019-02-16T06:20:55.662Z,-3.20
2019-02-16T06:23:25.014Z,-3.20
2019-02-16T06:25:54.322Z,-3.20
2019-02-16T06:28:23.668Z,-3.20
2019-02-16T06:30:53.390Z,-3.20
2019-02-16T06:33:22.734Z,-3.20
2019-02-16T06:35:55.979Z,-3.10
2019-02-16T06:38:25.352Z,-2.90
2019-02-16T06:40:55.124Z,-2.80
2019-02-16T06:43:24.516Z,-2.60
2019-02-16T06:45:53.908Z,-2.60
2019-02-16T06:48:23.245Z,-2.50
2019-02-16T06:50:52.596Z,-2.50
2019-02-16T06:53:22.047Z,-2.40
2019-02-16T06:55:58.583Z,-2.30
2019-02-16T06:58:28.209Z,-2.30
2019-02-16T07:00:57.572Z,-2.10
2019-02-16T07:03:26.982Z,-2.00
2019-02-16T07:05:56.326Z,-1.80
2019-02-16T07:08:25.658Z,-1.60
2019-02-16T07:10:54.996Z,-1.40
2019-02-16T07:13:24.582Z,-1.30
2019-02-16T07:16:11.511Z,-1.20
2019-02-16T07:18:48.844Z,-1.10
2019-02-16T07:21:18.374Z,-0.90
2019-02-16T07:24:05.492Z,0.10
2019-02-16T07:26:34.888Z,1.50
2019-02-16T07:29:04.226Z,2.40
2019-02-16T07:31:33.638Z,2.00
2019-02-16T07:34:03.530Z,1.50
2019-02-16T07:36:33.037Z,1.00
2019-02-16T07:39:02.582Z,0.70
2019-02-16T07:41:31.931Z,0.80
2019-02-16T07:44:23.155Z,0.80
2019-02-16T07:47:00.775Z,1.00
2019-02-16T07:49:42.578Z,1.80
2019-02-16T07:52:22.450Z,2.40
2019-02-16T07:54:55.634Z,2.90
2019-02-16T07:57:44.271Z,2.80
2019-02-16T08:00:33.983Z,2.70
2019-02-16T08:03:22.289Z,2.50
2019-02-16T08:05:57.425Z,2.10
2019-02-16T08:08:55.358Z,1.70
2019-02-16T08:11:59.078Z,1.50
2019-02-16T08:14:59.281Z,1.50
2019-02-16T08:17:34.509Z,1.50
2019-02-16T08:20:15.148Z,1.80
2019-02-16T08:22:50.800Z,2.40
2019-02-16T08:25:31.359Z,2.80
2019-02-16T08:28:28.974Z,3.50
2019-02-16T08:31:12.903Z,4.50
2019-02-16T08:34:04.299Z,6.50
2019-02-16T08:36:46.302Z,9.30
2019-02-16T08:39:23.951Z,11.40
2019-02-16T08:42:15.607Z,13.60
2019-02-16T08:45:06.791Z,14.70
2019-02-16T08:48:04.290Z,15.90
2019-02-16T08:50:51.572Z,16.90
2019-02-16T08:53:38.630Z,17.70
2019-02-16T08:56:29.965Z,18.20
2019-02-16T08:59:15.170Z,16.10
2019-02-16T09:02:03.452Z,17.50
2019-02-16T09:04:50.299Z,18.00
2019-02-16T09:07:45.069Z,17.80
2019-02-16T09:10:43.773Z,16.10
2019-02-16T09:13:32.150Z,18.40
2019-02-16T09:16:23.277Z,18.50
2019-02-16T09:19:14.368Z,18.00
2019-02-16T09:22:01.500Z,18.70
2019-02-16T09:25:04.985Z,16.90
2019-02-16T09:27:52.102Z,17.30
2019-02-16T09:30:37.623Z,17.00
2019-02-16T09:33:35.213Z,17.40
2019-02-16T09:36:13.016Z,16.30
2019-02-16T09:39:04.283Z,16.70
2019-02-16T09:41:38.937Z,15.70
2019-02-16T09:44:16.511Z,15.20
2019-02-16T09:47:07.914Z,17.30
2019-02-16T09:50:05.053Z,18.50
2019-02-16T09:52:59.341Z,20.00
2019-02-16T09:55:50.535Z,20.30
2019-02-16T09:58:26.046Z,20.60
2019-02-16T10:01:10.278Z,21.40
2019-02-16T10:03:57.515Z,20.30
2019-02-16T10:06:55.159Z,20.60
2019-02-16T10:09:43.620Z,18.80
2019-02-16T10:12:30.771Z,18.90
2019-02-16T10:15:25.422Z,21.00
2019-02-16T10:18:12.855Z,22.20
2019-02-16T10:20:59.749Z,22.30
2019-02-16T10:23:46.738Z,22.20
2019-02-16T10:26:38.991Z,22.70
2019-02-16T10:29:26.529Z,22.70
2019-02-16T10:32:13.811Z,23.60
2019-02-16T10:34:51.315Z,24.10
2019-02-16T10:37:39.676Z,24.20
2019-02-16T10:40:26.641Z,25.10
2019-02-16T10:43:26.978Z,25.30
2019-02-16T10:46:23.147Z,26.20
2019-02-16T10:49:06.880Z,26.30
2019-02-16T10:51:42.219Z,25.40
2019-02-16T10:54:33.592Z,24.50
2019-02-16T10:57:28.124Z,24.80
2019-02-16T11:00:14.008Z,23.70
2019-02-16T11:03:01.219Z,25.10
2019-02-16T11:05:48.829Z,26.10
2019-02-16T11:08:52.313Z,24.70
2019-02-16T11:11:38.651Z,24.30
2019-02-16T11:14:19.201Z,25.80
2019-02-16T11:17:12.474Z,26.80
2019-02-16T11:19:52.203Z,26.10
2019-02-16T11:22:39.548Z,25.90
2019-02-16T11:25:43.375Z,25.40
2019-02-16T11:28:30.722Z,23.20
2019-02-16T11:31:22.243Z,20.00
2019-02-16T11:34:05.597Z,17.90
2019-02-16T11:36:43.956Z,16.40
2019-02-16T11:39:31.255Z,15.40
2019-02-16T11:42:06.305Z,14.50
2019-02-16T11:44:57.954Z,14.00
2019-02-16T11:47:46.411Z,13.60
2019-02-16T11:50:44.212Z,13.20
2019-02-16T11:53:44.625Z,13.00
2019-02-16T11:56:31.755Z,12.90
2019-02-16T11:59:20.999Z,12.70
2019-02-16T12:02:04.905Z,12.70
2019-02-16T12:04:53.227Z,12.70
2019-02-16T12:07:41.474Z,12.60
2019-02-16T12:10:27.975Z,12.70
2019-02-16T12:13:07.578Z,12.70
2019-02-16T12:15:56.855Z,12.90
2019-02-16T12:18:51.029Z,12.90
2019-02-16T12:21:47.280Z,13.00
2019-02-16T12:24:30.747Z,13.00
2019-02-16T12:27:28.350Z,13.10
2019-02-16T12:30:15.458Z,13.10
2019-02-16T12:33:21.927Z,13.00
2019-02-16T12:36:08.666Z,13.00
2019-02-16T12:39:04.903Z,13.10
2019-02-16T12:41:39.325Z,13.10
2019-02-16T12:44:26.195Z,13.20
2019-02-16T12:47:13.422Z,13.30
2019-02-16T12:49:55.532Z,13.40
2019-02-16T12:52:43.862Z,13.40
2019-02-16T12:55:44.467Z,13.40
2019-02-16T12:58:42.063Z,13.50
2019-02-16T13:01:22.439Z,13.50
2019-02-16T13:04:29.129Z,13.50
2019-02-16T13:07:08.251Z,13.60
2019-02-16T13:09:45.303Z,13.60
2019-02-16T13:12:45.782Z,13.70
2019-02-16T13:15:23.769Z,13.80
2019-02-16T13:18:15.226Z,13.90
2019-02-16T13:21:06.576Z,13.90
2019-02-16T13:23:57.849Z,14.10
2019-02-16T13:26:45.293Z,14.10
2019-02-16T13:29:36.507Z,14.20
2019-02-16T13:32:21.265Z,14.30
2019-02-16T13:35:02.317Z,14.30
2019-02-16T13:37:51.174Z,14.40
2019-02-16T13:40:45.780Z,14.40
2019-02-16T13:43:32.979Z,14.50
2019-02-16T13:46:21.466Z,14.50
2019-02-16T13:49:04.883Z,14.60
2019-02-16T13:51:46.673Z,14.80
2019-02-16T13:54:32.303Z,15.00
2019-02-16T13:57:35.789Z,15.30
2019-02-16T14:00:23.167Z,15.50
2019-02-16T14:03:11.076Z,15.90
2019-02-16T14:05:47.987Z,16.10
2019-02-16T14:08:24.689Z,16.50
2019-02-16T14:11:19.184Z,16.90
2019-02-16T14:14:00.890Z,17.20
2019-02-16T14:16:36.620Z,17.70
2019-02-16T14:19:06.060Z,18.00
2019-02-16T14:21:35.526Z,18.60
2019-02-16T14:24:05.114Z,19.20
2019-02-16T14:26:34.739Z,19.70
2019-02-16T14:29:04.235Z,20.00
2019-02-16T14:31:34.082Z,20.20
2019-02-16T14:34:03.754Z,20.50
2019-02-16T14:36:33.440Z,20.90
2019-02-16T14:39:14.785Z,20.70
2019-02-16T14:41:44.272Z,21.20
2019-02-16T14:44:13.818Z,21.50
2019-02-16T14:46:43.320Z,21.60
2019-02-16T14:49:12.842Z,21.70
2019-02-16T14:51:42.411Z,21.60
2019-02-16T14:54:12.033Z,21.70
2019-02-16T14:56:41.855Z,21.90
2019-02-16T14:59:11.418Z,22.30
2019-02-16T15:01:40.968Z,22.20
2019-02-16T15:04:10.703Z,22.50
2019-02-16T15:06:40.370Z,22.60
2019-02-16T15:09:09.987Z,22.50
2019-02-16T15:11:39.676Z,22.60
2019-02-16T15:14:09.345Z,22.20
2019-02-16T15:16:38.961Z,21.60
2019-02-16T15:19:09.004Z,21.60
2019-02-16T15:21:38.911Z,21.90
2019-02-16T15:24:08.459Z,21.70
2019-02-16T15:26:38.077Z,21.70
2019-02-16T15:29:07.590Z,21.30
2019-02-16T15:31:37.105Z,21.00
2019-02-16T15:34:06.694Z,20.90
2019-02-16T15:36:36.189Z,20.80
2019-02-16T15:39:08.039Z,20.60
2019-02-16T15:41:37.511Z,20.40
2019-02-16T15:44:07.073Z,20.10
2019-02-16T15:46:36.643Z,20.00
2019-02-16T15:49:23.802Z,19.90
2019-02-16T15:51:53.361Z,19.60
2019-02-16T15:54:25.130Z,19.20
2019-02-16T15:56:54.588Z,18.90
2019-02-16T15:59:24.144Z,18.60
2019-02-16T16:01:53.748Z,17.90
2019-02-16T16:04:23.351Z,17.00
2019-02-16T16:06:52.868Z,16.00
2019-02-16T16:09:44.313Z,15.30
2019-02-16T16:12:46.425Z,14.60
2019-02-16T16:15:53.321Z,13.70
2019-02-16T16:18:47.292Z,12.80
2019-02-16T16:21:41.546Z,12.20
2019-02-16T16:24:22.069Z,11.80
2019-02-16T16:27:00.879Z,11.40
2019-02-16T16:29:48.467Z,11.00
2019-02-16T16:32:36.868Z,10.70
2019-02-16T16:35:15.248Z,10.40
2019-02-16T16:38:06.695Z,10.10
2019-02-16T16:41:19.900Z,9.80
2019-02-16T16:44:03.546Z,9.60
2019-02-16T16:46:50.704Z,9.40
2019-02-16T16:49:30.781Z,9.20
2019-02-16T16:52:22.036Z,8.90
2019-02-16T16:55:10.592Z,8.70
2019-02-16T16:57:49.817Z,8.50
2019-02-16T17:00:33.677Z,8.30
2019-02-16T17:03:40.418Z,8.10
2019-02-16T17:06:29.389Z,8.00
2019-02-16T17:09:12.400Z,7.90
2019-02-16T17:12:19.251Z,8.00
2019-02-16T17:14:56.800Z,8.30
2019-02-16T17:17:51.118Z,8.50
2019-02-16T17:20:34.151Z,8.50
2019-02-16T17:23:22.855Z,8.50
2019-02-16T17:26:26.627Z,8.40
2019-02-16T17:29:15.175Z,8.10
2019-02-16T17:32:03.621Z,7.80
2019-02-16T17:34:46.319Z,7.50
2019-02-16T17:37:34.861Z,7.40
2019-02-16T17:40:15.176Z,7.30
2019-02-16T17:42:58.476Z,7.20
2019-02-16T17:45:52.923Z,7.00
2019-02-16T17:48:40.001Z,6.90
2019-02-16T17:51:28.925Z,7.00
2019-02-16T17:54:26.487Z,7.10
2019-02-16T17:57:10.976Z,7.20
2019-02-16T17:59:45.680Z,7.10
2019-02-16T18:02:26.226Z,6.90
2019-02-16T18:05:20.630Z,6.80
2019-02-16T18:08:01.690Z,6.60
2019-02-16T18:10:38.467Z,6.50
2019-02-16T18:13:30.168Z,6.60
2019-02-16T18:16:09.852Z,6.60
2019-02-16T18:19:10.405Z,6.70
2019-02-16T18:21:50.006Z,6.80
2019-02-16T18:24:42.482Z,7.00
2019-02-16T18:27:29.687Z,6.90
2019-02-16T18:30:30.379Z,6.90
2019-02-16T18:33:18.780Z,6.80
2019-02-16T18:36:07.615Z,6.50
2019-02-16T18:39:11.473Z,6.40
2019-02-16T18:42:02.936Z,6.10
2019-02-16T18:44:51.587Z,6.00
2019-02-16T18:47:48.954Z,5.80
2019-02-16T18:50:40.227Z,5.90
2019-02-16T18:53:28.892Z,6.00
2019-02-16T18:56:20.175Z,6.10
2019-02-16T18:59:08.797Z,5.90
2019-02-16T19:01:53.949Z,5.90
2019-02-16T19:04:38.812Z,5.90
2019-02-16T19:07:24.326Z,5.80
2019-02-16T19:10:09.414Z,5.60
2019-02-16T19:12:58.291Z,5.40
2019-02-16T19:15:45.893Z,5.30
2019-02-16T19:18:30.960Z,5.20
2019-02-16T19:21:25.383Z,5.10
2019-02-16T19:24:04.454Z,5.20
2019-02-16T19:26:51.677Z,5.10
2019-02-16T19:29:42.918Z,5.20
2019-02-16T19:32:30.199Z,5.20
2019-02-16T19:35:21.888Z,5.10
2019-02-16T19:38:10.446Z,4.90
2019-02-16T19:41:01.760Z,4.80
2019-02-16T19:43:45.880Z,4.70
2019-02-16T19:46:52.725Z,4.70
2019-02-16T19:49:32.119Z,4.50
2019-02-16T19:52:29.617Z,4.20
2019-02-16T19:55:09.158Z,4.00
2019-02-16T19:58:04.885Z,3.90
2019-02-16T20:00:56.390Z,3.80
2019-02-16T20:03:53.391Z,3.70
2019-02-16T20:06:33.116Z,3.60
2019-02-16T20:09:21.683Z,3.40
2019-02-16T20:12:13.294Z,3.40
2019-02-16T20:15:11.178Z,3.40
2019-02-16T20:17:54.764Z,3.40
2019-02-16T20:20:30.738Z,3.40
2019-02-16T20:23:31.320Z,3.50
2019-02-16T20:26:19.767Z,3.50
2019-02-16T20:28:58.083Z,3.40
2019-02-16T20:31:38.618Z,3.40
2019-02-16T20:34:27.110Z,3.40
2019-02-16T20:37:18.780Z,3.40
2019-02-16T20:40:13.047Z,3.20
2019-02-16T20:47:25.729Z,3.10
2019-02-16T20:50:18.890Z,3.20
2019-02-16T20:53:16.861Z,3.10
2019-02-16T20:56:19.548Z,3.30
2019-02-16T21:02:06.806Z,3.30
2019-02-16T21:05:01.419Z,3.50
2019-02-16T21:14:21.424Z,3.40
2019-02-16T21:17:15.263Z,3.30
2019-02-16T21:20:03.870Z,3.10
2019-02-16T21:22:47.070Z,3.00
2019-02-16T21:25:54.828Z,2.80
2019-02-16T21:28:49.661Z,2.70
2019-02-16T21:31:41.867Z,2.60
2019-02-16T21:38:42.262Z,2.40
2019-02-16T21:41:51.665Z,2.30
2019-02-16T21:44:51.772Z,2.20
2019-02-16T21:47:58.374Z,2.20
2019-02-16T21:50:37.419Z,2.50
2019-02-16T21:54:20.733Z,2.60
2019-02-16T21:57:24.475Z,2.60
2019-02-16T22:00:24.737Z,2.50
2019-02-16T22:03:22.294Z,2.60
2019-02-16T22:06:19.821Z,2.50
2019-02-16T22:12:42.248Z,2.50
2019-02-16T22:15:11.889Z,2.30
2019-02-16T22:17:41.668Z,2.20
2019-02-16T22:20:11.293Z,2.10
2019-02-16T22:22:40.951Z,2.10
2019-02-16T22:25:10.524Z,2.10
2019-02-16T22:27:39.983Z,2.10
2019-02-16T22:30:09.994Z,2.00
2019-02-16T22:32:39.501Z,1.90
2019-02-16T22:35:09.305Z,1.80
2019-02-16T22:37:38.905Z,1.70
2019-02-16T22:40:08.732Z,1.60
2019-02-16T22:42:38.230Z,1.50
2019-02-16T22:45:08.081Z,1.50
2019-02-16T22:47:37.585Z,1.60
2019-02-16T22:50:09.132Z,1.70
2019-02-16T22:52:38.674Z,1.60
2019-02-16T22:55:08.926Z,1.60
2019-02-16T22:57:38.495Z,1.50
2019-02-16T23:00:13.286Z,1.60
2019-02-16T23:02:42.762Z,1.60
2019-02-16T23:05:12.679Z,1.50
2019-02-16T23:07:42.178Z,1.50
2019-02-16T23:10:12.028Z,1.50
2019-02-16T23:12:41.599Z,1.50
2019-02-16T23:15:12.550Z,1.40
2019-02-16T23:17:42.076Z,1.40
2019-02-16T23:20:11.795Z,1.20
2019-02-16T23:22:41.202Z,1.10
2019-02-16T23:25:10.772Z,1.00
2019-02-16T23:27:40.611Z,1.00
2019-02-16T23:30:10.488Z,1.00
2019-02-16T23:32:40.000Z,1.00
2019-02-16T23:35:09.519Z,1.00
2019-02-16T23:37:39.178Z,1.00
2019-02-16T23:40:09.077Z,1.00
2019-02-16T23:42:38.703Z,0.90
2019-02-16T23:45:08.374Z,0.90
2019-02-16T23:47:37.923Z,0.90
2019-02-16T23:50:08.221Z,0.80
2019-02-16T23:52:37.705Z,0.80
2019-02-16T23:55:08.027Z,0.80
2019-02-16T23:57:37.665Z,0.90
